sensor_id;sensor_type;location;lat;lon;timestamp;P1;durP1;ratioP1;P2;durP2;ratioP2
59093;SDS011;44880;52.814;18.270;2023-11-19T00:01:39;60.40;;;29.30;;
59093;SDS011;44880;52.814;18.270;2023-11-19T00:04:11;65.00;;;30.70;;
59093;SDS011;44880;52.814;18.270;2023-11-19T00:06:42;57.60;;;28.70;;
59093;SDS011;44880;52.814;18.270;2023-11-19T00:11:45;56.50;;;27.30;;
59093;SDS011;44880;52.814;18.270;2023-11-19T00:14:17;59.00;;;28.10;;
59093;SDS011;44880;52.814;18.270;2023-11-19T00:16:48;63.00;;;28.70;;
59093;SDS011;44880;52.814;18.270;2023-11-19T00:19:22;69.60;;;31.80;;
59093;SDS011;44880;52.814;18.270;2023-11-19T00:21:54;76.80;;;36.80;;
59093;SDS011;44880;52.814;18.270;2023-11-19T00:24:30;74.10;;;34.80;;
59093;SDS011;44880;52.814;18.270;2023-11-19T00:27:03;74.90;;;35.00;;
59093;SDS011;44880;52.814;18.270;2023-11-19T00:29:36;67.70;;;32.40;;
59093;SDS011;44880;52.814;18.270;2023-11-19T00:32:08;63.40;;;30.10;;
59093;SDS011;44880;52.814;18.270;2023-11-19T00:34:40;53.90;;;27.90;;
59093;SDS011;44880;52.814;18.270;2023-11-19T00:37:11;54.40;;;29.30;;
59093;SDS011;44880;52.814;18.270;2023-11-19T00:39:43;63.50;;;29.00;;
59093;SDS011;44880;52.814;18.270;2023-11-19T00:42:15;59.70;;;27.70;;
59093;SDS011;44880;52.814;18.270;2023-11-19T00:44:47;54.60;;;27.90;;
59093;SDS011;44880;52.814;18.270;2023-11-19T00:47:21;56.90;;;27.80;;
59093;SDS011;44880;52.814;18.270;2023-11-19T00:49:53;59.70;;;27.80;;
59093;SDS011;44880;52.814;18.270;2023-11-19T00:52:25;57.40;;;27.00;;
59093;SDS011;44880;52.814;18.270;2023-11-19T00:54:56;56.40;;;27.00;;
59093;SDS011;44880;52.814;18.270;2023-11-19T00:57:28;55.70;;;26.40;;
59093;SDS011;44880;52.814;18.270;2023-11-19T01:00:01;51.50;;;27.00;;
59093;SDS011;44880;52.814;18.270;2023-11-19T01:02:39;51.80;;;24.60;;
59093;SDS011;44880;52.814;18.270;2023-11-19T01:05:11;50.70;;;24.70;;
59093;SDS011;44880;52.814;18.270;2023-11-19T01:07:43;60.50;;;26.40;;
59093;SDS011;44880;52.814;18.270;2023-11-19T01:10:15;66.10;;;30.30;;
59093;SDS011;44880;52.814;18.270;2023-11-19T01:12:47;76.40;;;33.10;;
59093;SDS011;44880;52.814;18.270;2023-11-19T01:17:49;68.70;;;33.10;;
59093;SDS011;44880;52.814;18.270;2023-11-19T01:20:20;61.10;;;30.40;;
59093;SDS011;44880;52.814;18.270;2023-11-19T01:22:52;56.00;;;29.10;;
59093;SDS011;44880;52.814;18.270;2023-11-19T01:25:24;57.30;;;26.90;;
59093;SDS011;44880;52.814;18.270;2023-11-19T01:27:56;52.30;;;25.50;;
59093;SDS011;44880;52.814;18.270;2023-11-19T01:30:27;53.30;;;25.80;;
59093;SDS011;44880;52.814;18.270;2023-11-19T01:32:59;50.90;;;24.40;;
59093;SDS011;44880;52.814;18.270;2023-11-19T01:35:31;48.90;;;23.80;;
59093;SDS011;44880;52.814;18.270;2023-11-19T01:38:02;51.90;;;24.20;;
59093;SDS011;44880;52.814;18.270;2023-11-19T01:40:34;50.20;;;24.10;;
59093;SDS011;44880;52.814;18.270;2023-11-19T01:43:05;47.80;;;24.40;;
59093;SDS011;44880;52.814;18.270;2023-11-19T01:45:39;44.80;;;22.30;;
59093;SDS011;44880;52.814;18.270;2023-11-19T01:48:11;41.90;;;22.40;;
59093;SDS011;44880;52.814;18.270;2023-11-19T01:50:44;44.70;;;22.30;;
59093;SDS011;44880;52.814;18.270;2023-11-19T01:53:16;43.40;;;22.00;;
59093;SDS011;44880;52.814;18.270;2023-11-19T01:55:48;40.60;;;21.80;;
59093;SDS011;44880;52.814;18.270;2023-11-19T01:58:20;53.60;;;25.30;;
59093;SDS011;44880;52.814;18.270;2023-11-19T02:03:22;63.70;;;31.00;;
59093;SDS011;44880;52.814;18.270;2023-11-19T02:05:57;59.10;;;29.20;;
59093;SDS011;44880;52.814;18.270;2023-11-19T02:08:30;62.50;;;30.10;;
59093;SDS011;44880;52.814;18.270;2023-11-19T02:11:01;50.70;;;26.60;;
59093;SDS011;44880;52.814;18.270;2023-11-19T02:13:35;42.00;;;22.30;;
59093;SDS011;44880;52.814;18.270;2023-11-19T02:16:09;40.90;;;20.60;;
59093;SDS011;44880;52.814;18.270;2023-11-19T02:18:41;44.20;;;20.80;;
59093;SDS011;44880;52.814;18.270;2023-11-19T02:21:12;40.10;;;21.00;;
59093;SDS011;44880;52.814;18.270;2023-11-19T02:23:45;40.50;;;20.30;;
59093;SDS011;44880;52.814;18.270;2023-11-19T02:26:18;42.20;;;21.70;;
59093;SDS011;44880;52.814;18.270;2023-11-19T02:28:53;40.30;;;20.50;;
59093;SDS011;44880;52.814;18.270;2023-11-19T02:31:24;39.70;;;21.10;;
59093;SDS011;44880;52.814;18.270;2023-11-19T02:33:57;39.60;;;17.90;;
59093;SDS011;44880;52.814;18.270;2023-11-19T02:36:30;35.60;;;17.90;;
59093;SDS011;44880;52.814;18.270;2023-11-19T02:39:03;38.00;;;19.00;;
59093;SDS011;44880;52.814;18.270;2023-11-19T02:41:38;43.20;;;21.90;;
59093;SDS011;44880;52.814;18.270;2023-11-19T02:44:10;48.00;;;21.80;;
59093;SDS011;44880;52.814;18.270;2023-11-19T02:46:41;50.90;;;24.90;;
59093;SDS011;44880;52.814;18.270;2023-11-19T02:49:14;45.10;;;22.60;;
59093;SDS011;44880;52.814;18.270;2023-11-19T02:51:45;38.00;;;21.00;;
59093;SDS011;44880;52.814;18.270;2023-11-19T02:54:17;39.30;;;20.20;;
59093;SDS011;44880;52.814;18.270;2023-11-19T02:56:49;34.40;;;17.90;;
59093;SDS011;44880;52.814;18.270;2023-11-19T02:59:23;32.50;;;17.40;;
59093;SDS011;44880;52.814;18.270;2023-11-19T03:02:07;34.70;;;17.50;;
59093;SDS011;44880;52.814;18.270;2023-11-19T03:04:40;34.40;;;18.10;;
59093;SDS011;44880;52.814;18.270;2023-11-19T03:07:13;32.70;;;17.00;;
59093;SDS011;44880;52.814;18.270;2023-11-19T03:09:46;35.60;;;17.70;;
59093;SDS011;44880;52.814;18.270;2023-11-19T03:12:17;33.10;;;16.40;;
59093;SDS011;44880;52.814;18.270;2023-11-19T03:14:49;32.50;;;16.20;;
59093;SDS011;44880;52.814;18.270;2023-11-19T03:17:21;34.20;;;16.90;;
59093;SDS011;44880;52.814;18.270;2023-11-19T03:19:53;33.50;;;15.40;;
59093;SDS011;44880;52.814;18.270;2023-11-19T03:22:25;31.80;;;16.40;;
59093;SDS011;44880;52.814;18.270;2023-11-19T03:24:56;32.50;;;16.00;;
59093;SDS011;44880;52.814;18.270;2023-11-19T03:27:28;38.20;;;18.00;;
59093;SDS011;44880;52.814;18.270;2023-11-19T03:30:00;40.30;;;18.90;;
59093;SDS011;44880;52.814;18.270;2023-11-19T03:32:33;36.70;;;17.90;;
59093;SDS011;44880;52.814;18.270;2023-11-19T03:35:07;33.70;;;16.60;;
59093;SDS011;44880;52.814;18.270;2023-11-19T03:37:40;30.80;;;16.40;;
59093;SDS011;44880;52.814;18.270;2023-11-19T03:40:12;29.70;;;14.50;;
59093;SDS011;44880;52.814;18.270;2023-11-19T03:42:44;27.90;;;14.00;;
59093;SDS011;44880;52.814;18.270;2023-11-19T03:45:16;27.70;;;13.90;;
59093;SDS011;44880;52.814;18.270;2023-11-19T03:50:19;25.60;;;12.80;;
59093;SDS011;44880;52.814;18.270;2023-11-19T03:52:50;26.40;;;12.40;;
59093;SDS011;44880;52.814;18.270;2023-11-19T03:55:23;26.50;;;12.60;;
59093;SDS011;44880;52.814;18.270;2023-11-19T03:57:54;23.50;;;11.40;;
59093;SDS011;44880;52.814;18.270;2023-11-19T04:00:26;23.20;;;12.50;;
59093;SDS011;44880;52.814;18.270;2023-11-19T04:02:58;26.00;;;12.10;;
59093;SDS011;44880;52.814;18.270;2023-11-19T04:05:30;24.30;;;12.00;;
59093;SDS011;44880;52.814;18.270;2023-11-19T04:10:33;24.00;;;11.20;;
59093;SDS011;44880;52.814;18.270;2023-11-19T04:13:05;28.80;;;13.00;;
59093;SDS011;44880;52.814;18.270;2023-11-19T04:15:37;31.70;;;14.20;;
59093;SDS011;44880;52.814;18.270;2023-11-19T04:18:09;35.60;;;15.70;;
59093;SDS011;44880;52.814;18.270;2023-11-19T04:20:40;29.20;;;14.00;;
59093;SDS011;44880;52.814;18.270;2023-11-19T04:23:12;29.20;;;13.90;;
59093;SDS011;44880;52.814;18.270;2023-11-19T04:25:44;28.20;;;14.10;;
59093;SDS011;44880;52.814;18.270;2023-11-19T04:30:46;23.30;;;11.90;;
59093;SDS011;44880;52.814;18.270;2023-11-19T04:35:48;24.50;;;11.80;;
59093;SDS011;44880;52.814;18.270;2023-11-19T04:38:19;21.90;;;11.20;;
59093;SDS011;44880;52.814;18.270;2023-11-19T04:40:51;23.10;;;10.90;;
59093;SDS011;44880;52.814;18.270;2023-11-19T04:43:25;23.60;;;11.00;;
59093;SDS011;44880;52.814;18.270;2023-11-19T04:45:57;22.20;;;10.50;;
59093;SDS011;44880;52.814;18.270;2023-11-19T04:50:59;21.40;;;9.60;;
59093;SDS011;44880;52.814;18.270;2023-11-19T04:53:31;24.50;;;11.70;;
59093;SDS011;44880;52.814;18.270;2023-11-19T04:56:08;21.30;;;10.90;;
59093;SDS011;44880;52.814;18.270;2023-11-19T04:58:41;26.00;;;12.00;;
59093;SDS011;44880;52.814;18.270;2023-11-19T05:01:14;30.70;;;13.80;;
59093;SDS011;44880;52.814;18.270;2023-11-19T05:03:46;30.10;;;13.90;;
59093;SDS011;44880;52.814;18.270;2023-11-19T05:06:19;24.90;;;11.90;;
59093;SDS011;44880;52.814;18.270;2023-11-19T05:08:51;22.30;;;11.80;;
59093;SDS011;44880;52.814;18.270;2023-11-19T05:11:22;23.90;;;12.10;;
59093;SDS011;44880;52.814;18.270;2023-11-19T05:13:56;20.30;;;9.80;;
59093;SDS011;44880;52.814;18.270;2023-11-19T05:16:28;21.60;;;10.30;;
59093;SDS011;44880;52.814;18.270;2023-11-19T05:21:30;20.90;;;10.40;;
59093;SDS011;44880;52.814;18.270;2023-11-19T05:24:01;18.70;;;9.60;;
59093;SDS011;44880;52.814;18.270;2023-11-19T05:26:34;21.10;;;10.20;;
59093;SDS011;44880;52.814;18.270;2023-11-19T05:29:05;20.20;;;10.50;;
59093;SDS011;44880;52.814;18.270;2023-11-19T05:34:07;20.90;;;8.90;;
59093;SDS011;44880;52.814;18.270;2023-11-19T05:36:40;20.40;;;10.30;;
59093;SDS011;44880;52.814;18.270;2023-11-19T05:39:11;21.10;;;10.00;;
59093;SDS011;44880;52.814;18.270;2023-11-19T05:41:44;25.80;;;11.30;;
59093;SDS011;44880;52.814;18.270;2023-11-19T05:44:16;24.50;;;11.60;;
59093;SDS011;44880;52.814;18.270;2023-11-19T05:46:49;23.40;;;10.90;;
59093;SDS011;44880;52.814;18.270;2023-11-19T05:49:21;24.70;;;11.70;;
59093;SDS011;44880;52.814;18.270;2023-11-19T05:51:52;22.70;;;10.60;;
59093;SDS011;44880;52.814;18.270;2023-11-19T05:54:24;19.20;;;9.60;;
59093;SDS011;44880;52.814;18.270;2023-11-19T05:56:56;21.70;;;11.00;;
59093;SDS011;44880;52.814;18.270;2023-11-19T05:59:28;21.30;;;10.10;;
59093;SDS011;44880;52.814;18.270;2023-11-19T06:02:01;19.20;;;9.10;;
59093;SDS011;44880;52.814;18.270;2023-11-19T06:07:03;21.50;;;9.60;;
59093;SDS011;44880;52.814;18.270;2023-11-19T06:09:35;19.30;;;9.20;;
59093;SDS011;44880;52.814;18.270;2023-11-19T06:12:08;20.70;;;9.90;;
59093;SDS011;44880;52.814;18.270;2023-11-19T06:14:41;21.50;;;10.00;;
59093;SDS011;44880;52.814;18.270;2023-11-19T06:17:13;22.20;;;10.70;;
59093;SDS011;44880;52.814;18.270;2023-11-19T06:19:44;21.80;;;10.40;;
59093;SDS011;44880;52.814;18.270;2023-11-19T06:22:16;22.00;;;10.60;;
59093;SDS011;44880;52.814;18.270;2023-11-19T06:24:48;24.70;;;10.80;;
59093;SDS011;44880;52.814;18.270;2023-11-19T06:27:20;27.10;;;13.20;;
59093;SDS011;44880;52.814;18.270;2023-11-19T06:29:52;24.90;;;11.40;;
59093;SDS011;44880;52.814;18.270;2023-11-19T06:32:24;22.70;;;11.70;;
59093;SDS011;44880;52.814;18.270;2023-11-19T06:34:56;24.00;;;11.60;;
59093;SDS011;44880;52.814;18.270;2023-11-19T06:37:28;21.50;;;11.00;;
59093;SDS011;44880;52.814;18.270;2023-11-19T06:40:00;21.50;;;10.80;;
59093;SDS011;44880;52.814;18.270;2023-11-19T06:42:33;22.60;;;10.50;;
59093;SDS011;44880;52.814;18.270;2023-11-19T06:45:05;20.70;;;10.80;;
59093;SDS011;44880;52.814;18.270;2023-11-19T06:47:38;22.00;;;11.00;;
59093;SDS011;44880;52.814;18.270;2023-11-19T06:50:09;22.50;;;11.80;;
59093;SDS011;44880;52.814;18.270;2023-11-19T06:52:41;24.20;;;11.40;;
59093;SDS011;44880;52.814;18.270;2023-11-19T06:55:13;23.10;;;11.80;;
59093;SDS011;44880;52.814;18.270;2023-11-19T07:00:15;23.40;;;10.90;;
59093;SDS011;44880;52.814;18.270;2023-11-19T07:02:48;22.90;;;11.40;;
59093;SDS011;44880;52.814;18.270;2023-11-19T07:05:20;22.40;;;11.00;;
59093;SDS011;44880;52.814;18.270;2023-11-19T07:07:52;26.20;;;12.70;;
59093;SDS011;44880;52.814;18.270;2023-11-19T07:12:54;27.90;;;13.30;;
59093;SDS011;44880;52.814;18.270;2023-11-19T07:17:56;25.10;;;12.10;;
59093;SDS011;44880;52.814;18.270;2023-11-19T07:20:27;24.50;;;12.60;;
59093;SDS011;44880;52.814;18.270;2023-11-19T07:23:01;24.00;;;12.60;;
59093;SDS011;44880;52.814;18.270;2023-11-19T07:25:33;24.70;;;12.40;;
59093;SDS011;44880;52.814;18.270;2023-11-19T07:28:05;24.50;;;12.40;;
59093;SDS011;44880;52.814;18.270;2023-11-19T07:30:38;25.30;;;12.50;;
59093;SDS011;44880;52.814;18.270;2023-11-19T07:33:10;25.10;;;12.80;;
59093;SDS011;44880;52.814;18.270;2023-11-19T07:35:42;26.90;;;12.70;;
59093;SDS011;44880;52.814;18.270;2023-11-19T07:38:14;22.60;;;11.70;;
59093;SDS011;44880;52.814;18.270;2023-11-19T07:40:46;22.30;;;11.60;;
59093;SDS011;44880;52.814;18.270;2023-11-19T07:43:18;25.80;;;11.60;;
59093;SDS011;44880;52.814;18.270;2023-11-19T07:45:50;22.30;;;11.00;;
59093;SDS011;44880;52.814;18.270;2023-11-19T07:48:21;25.30;;;12.70;;
59093;SDS011;44880;52.814;18.270;2023-11-19T07:50:53;29.00;;;12.70;;
59093;SDS011;44880;52.814;18.270;2023-11-19T07:53:25;27.10;;;12.80;;
59093;SDS011;44880;52.814;18.270;2023-11-19T07:55:57;24.00;;;11.50;;
59093;SDS011;44880;52.814;18.270;2023-11-19T07:58:29;25.50;;;12.20;;
59093;SDS011;44880;52.814;18.270;2023-11-19T08:01:01;24.30;;;12.20;;
59093;SDS011;44880;52.814;18.270;2023-11-19T08:03:41;23.50;;;11.10;;
59093;SDS011;44880;52.814;18.270;2023-11-19T08:08:43;25.40;;;12.10;;
59093;SDS011;44880;52.814;18.270;2023-11-19T08:11:16;22.50;;;11.40;;
59093;SDS011;44880;52.814;18.270;2023-11-19T08:13:48;27.40;;;11.90;;
59093;SDS011;44880;52.814;18.270;2023-11-19T08:16:20;25.80;;;12.90;;
59093;SDS011;44880;52.814;18.270;2023-11-19T08:18:52;24.40;;;12.10;;
59093;SDS011;44880;52.814;18.270;2023-11-19T08:21:25;23.00;;;11.30;;
59093;SDS011;44880;52.814;18.270;2023-11-19T08:23:57;25.40;;;11.90;;
59093;SDS011;44880;52.814;18.270;2023-11-19T08:26:29;28.70;;;13.60;;
59093;SDS011;44880;52.814;18.270;2023-11-19T08:29:00;25.80;;;13.00;;
59093;SDS011;44880;52.814;18.270;2023-11-19T08:31:32;27.40;;;13.80;;
59093;SDS011;44880;52.814;18.270;2023-11-19T08:34:04;27.80;;;13.30;;
59093;SDS011;44880;52.814;18.270;2023-11-19T08:36:37;25.50;;;13.00;;
59093;SDS011;44880;52.814;18.270;2023-11-19T08:39:09;25.30;;;13.10;;
59093;SDS011;44880;52.814;18.270;2023-11-19T08:41:42;30.00;;;13.30;;
59093;SDS011;44880;52.814;18.270;2023-11-19T08:44:13;27.00;;;13.50;;
59093;SDS011;44880;52.814;18.270;2023-11-19T08:46:48;26.50;;;13.40;;
59093;SDS011;44880;52.814;18.270;2023-11-19T08:49:20;27.40;;;14.80;;
59093;SDS011;44880;52.814;18.270;2023-11-19T08:54:22;26.50;;;14.40;;
59093;SDS011;44880;52.814;18.270;2023-11-19T08:56:54;25.00;;;13.80;;
59093;SDS011;44880;52.814;18.270;2023-11-19T08:59:26;27.00;;;14.30;;
59093;SDS011;44880;52.814;18.270;2023-11-19T09:01:57;26.50;;;14.00;;
59093;SDS011;44880;52.814;18.270;2023-11-19T09:04:30;27.80;;;14.40;;
59093;SDS011;44880;52.814;18.270;2023-11-19T09:07:05;31.00;;;14.70;;
59093;SDS011;44880;52.814;18.270;2023-11-19T09:09:38;29.50;;;13.70;;
59093;SDS011;44880;52.814;18.270;2023-11-19T09:12:11;29.60;;;14.50;;
59093;SDS011;44880;52.814;18.270;2023-11-19T09:14:44;28.00;;;13.30;;
59093;SDS011;44880;52.814;18.270;2023-11-19T09:17:18;27.60;;;14.10;;
59093;SDS011;44880;52.814;18.270;2023-11-19T09:19:50;28.30;;;14.10;;
59093;SDS011;44880;52.814;18.270;2023-11-19T09:24:52;26.90;;;13.80;;
59093;SDS011;44880;52.814;18.270;2023-11-19T09:27:24;27.20;;;13.50;;
59093;SDS011;44880;52.814;18.270;2023-11-19T09:29:56;29.80;;;14.60;;
59093;SDS011;44880;52.814;18.270;2023-11-19T09:32:28;30.40;;;14.40;;
59093;SDS011;44880;52.814;18.270;2023-11-19T09:35:00;27.10;;;14.50;;
59093;SDS011;44880;52.814;18.270;2023-11-19T09:37:32;28.80;;;14.50;;
59093;SDS011;44880;52.814;18.270;2023-11-19T09:40:05;29.90;;;14.60;;
59093;SDS011;44880;52.814;18.270;2023-11-19T09:42:42;30.20;;;15.90;;
59093;SDS011;44880;52.814;18.270;2023-11-19T09:45:15;28.30;;;14.80;;
59093;SDS011;44880;52.814;18.270;2023-11-19T09:47:47;35.30;;;15.50;;
59093;SDS011;44880;52.814;18.270;2023-11-19T09:50:23;34.80;;;16.50;;
59093;SDS011;44880;52.814;18.270;2023-11-19T09:52:55;33.20;;;16.70;;
59093;SDS011;44880;52.814;18.270;2023-11-19T09:55:26;30.00;;;14.20;;
59093;SDS011;44880;52.814;18.270;2023-11-19T10:00:29;30.10;;;14.50;;
59093;SDS011;44880;52.814;18.270;2023-11-19T10:03:01;31.10;;;15.10;;
59093;SDS011;44880;52.814;18.270;2023-11-19T10:05:34;31.30;;;15.70;;
59093;SDS011;44880;52.814;18.270;2023-11-19T10:11:03;28.00;;;14.30;;
59093;SDS011;44880;52.814;18.270;2023-11-19T10:13:35;31.70;;;15.60;;
59093;SDS011;44880;52.814;18.270;2023-11-19T10:16:27;30.20;;;14.80;;
59093;SDS011;44880;52.814;18.270;2023-11-19T10:19:01;30.20;;;14.20;;
59093;SDS011;44880;52.814;18.270;2023-11-19T10:24:32;32.90;;;15.30;;
59093;SDS011;44880;52.814;18.270;2023-11-19T10:27:08;33.20;;;15.10;;
59093;SDS011;44880;52.814;18.270;2023-11-19T10:30:00;34.20;;;15.70;;
59093;SDS011;44880;52.814;18.270;2023-11-19T10:32:33;30.20;;;15.80;;
59093;SDS011;44880;52.814;18.270;2023-11-19T10:38:02;29.60;;;14.70;;
59093;SDS011;44880;52.814;18.270;2023-11-19T10:41:04;31.00;;;15.70;;
59093;SDS011;44880;52.814;18.270;2023-11-19T10:43:43;33.60;;;15.70;;
59093;SDS011;44880;52.814;18.270;2023-11-19T10:46:15;30.20;;;15.70;;
59093;SDS011;44880;52.814;18.270;2023-11-19T10:49:16;31.30;;;15.20;;
59093;SDS011;44880;52.814;18.270;2023-11-19T10:51:48;31.00;;;16.00;;
59093;SDS011;44880;52.814;18.270;2023-11-19T10:57:06;32.70;;;16.80;;
59093;SDS011;44880;52.814;18.270;2023-11-19T10:59:40;31.50;;;15.50;;
59093;SDS011;44880;52.814;18.270;2023-11-19T11:05:09;35.40;;;16.70;;
59093;SDS011;44880;52.814;18.270;2023-11-19T11:07:41;35.60;;;17.00;;
59093;SDS011;44880;52.814;18.270;2023-11-19T11:10:52;34.50;;;16.60;;
59093;SDS011;44880;52.814;18.270;2023-11-19T11:16:24;34.20;;;16.70;;
59093;SDS011;44880;52.814;18.270;2023-11-19T11:18:58;36.80;;;16.50;;
59093;SDS011;44880;52.814;18.270;2023-11-19T11:21:49;33.70;;;17.00;;
59093;SDS011;44880;52.814;18.270;2023-11-19T11:27:42;37.00;;;19.20;;
59093;SDS011;44880;52.814;18.270;2023-11-19T11:30:43;32.90;;;16.30;;
59093;SDS011;44880;52.814;18.270;2023-11-19T11:33:26;34.40;;;16.40;;
59093;SDS011;44880;52.814;18.270;2023-11-19T11:36:16;33.60;;;16.30;;
59093;SDS011;44880;52.814;18.270;2023-11-19T11:38:51;33.70;;;17.00;;
59093;SDS011;44880;52.814;18.270;2023-11-19T11:41:23;33.90;;;16.40;;
59093;SDS011;44880;52.814;18.270;2023-11-19T11:46:58;37.40;;;17.00;;
59093;SDS011;44880;52.814;18.270;2023-11-19T11:52:25;39.80;;;17.70;;
59093;SDS011;44880;52.814;18.270;2023-11-19T11:55:01;35.90;;;16.40;;
59093;SDS011;44880;52.814;18.270;2023-11-19T11:58:01;31.60;;;16.20;;
59093;SDS011;44880;52.814;18.270;2023-11-19T12:00:37;32.90;;;16.40;;
59093;SDS011;44880;52.814;18.270;2023-11-19T12:03:23;37.00;;;17.00;;
59093;SDS011;44880;52.814;18.270;2023-11-19T12:05:56;36.20;;;18.20;;
59093;SDS011;44880;52.814;18.270;2023-11-19T12:08:29;38.10;;;17.80;;
59093;SDS011;44880;52.814;18.270;2023-11-19T12:11:09;36.30;;;18.30;;
59093;SDS011;44880;52.814;18.270;2023-11-19T12:13:48;40.40;;;19.00;;
59093;SDS011;44880;52.814;18.270;2023-11-19T12:16:28;38.20;;;17.90;;
59093;SDS011;44880;52.814;18.270;2023-11-19T12:19:04;37.30;;;18.10;;
59093;SDS011;44880;52.814;18.270;2023-11-19T12:21:37;38.50;;;17.10;;
59093;SDS011;44880;52.814;18.270;2023-11-19T12:24:09;41.80;;;18.90;;
59093;SDS011;44880;52.814;18.270;2023-11-19T12:26:42;40.30;;;19.40;;
59093;SDS011;44880;52.814;18.270;2023-11-19T12:29:17;35.30;;;16.50;;
59093;SDS011;44880;52.814;18.270;2023-11-19T12:31:55;35.60;;;17.30;;
59093;SDS011;44880;52.814;18.270;2023-11-19T12:34:32;31.50;;;14.60;;
59093;SDS011;44880;52.814;18.270;2023-11-19T12:37:05;30.50;;;15.20;;
59093;SDS011;44880;52.814;18.270;2023-11-19T12:39:39;33.90;;;17.00;;
59093;SDS011;44880;52.814;18.270;2023-11-19T12:42:16;34.90;;;15.90;;
59093;SDS011;44880;52.814;18.270;2023-11-19T12:44:56;32.80;;;16.00;;
59093;SDS011;44880;52.814;18.270;2023-11-19T12:47:28;31.20;;;14.30;;
59093;SDS011;44880;52.814;18.270;2023-11-19T12:50:01;30.70;;;14.20;;
59093;SDS011;44880;52.814;18.270;2023-11-19T12:52:33;30.60;;;14.50;;
59093;SDS011;44880;52.814;18.270;2023-11-19T12:57:57;31.20;;;14.00;;
59093;SDS011;44880;52.814;18.270;2023-11-19T13:00:30;33.90;;;15.20;;
59093;SDS011;44880;52.814;18.270;2023-11-19T13:03:04;36.20;;;15.90;;
59093;SDS011;44880;52.814;18.270;2023-11-19T13:05:36;38.90;;;15.50;;
59093;SDS011;44880;52.814;18.270;2023-11-19T13:08:08;34.30;;;15.50;;
59093;SDS011;44880;52.814;18.270;2023-11-19T13:10:51;29.90;;;13.90;;
59093;SDS011;44880;52.814;18.270;2023-11-19T13:13:24;28.60;;;13.20;;
59093;SDS011;44880;52.814;18.270;2023-11-19T13:16:02;27.20;;;13.10;;
59093;SDS011;44880;52.814;18.270;2023-11-19T13:18:35;29.60;;;13.90;;
59093;SDS011;44880;52.814;18.270;2023-11-19T13:21:07;31.60;;;14.30;;
59093;SDS011;44880;52.814;18.270;2023-11-19T13:23:40;28.20;;;14.80;;
59093;SDS011;44880;52.814;18.270;2023-11-19T13:26:12;32.10;;;15.00;;
59093;SDS011;44880;52.814;18.270;2023-11-19T13:28:44;30.30;;;14.50;;
59093;SDS011;44880;52.814;18.270;2023-11-19T13:31:16;30.00;;;14.40;;
59093;SDS011;44880;52.814;18.270;2023-11-19T13:33:49;32.80;;;14.70;;
59093;SDS011;44880;52.814;18.270;2023-11-19T13:36:20;31.90;;;14.80;;
59093;SDS011;44880;52.814;18.270;2023-11-19T13:38:54;35.00;;;16.40;;
59093;SDS011;44880;52.814;18.270;2023-11-19T13:41:27;38.70;;;17.50;;
59093;SDS011;44880;52.814;18.270;2023-11-19T13:43:59;39.40;;;17.10;;
59093;SDS011;44880;52.814;18.270;2023-11-19T13:46:31;37.40;;;16.70;;
59093;SDS011;44880;52.814;18.270;2023-11-19T13:49:03;33.90;;;15.80;;
59093;SDS011;44880;52.814;18.270;2023-11-19T13:51:36;34.40;;;15.20;;
59093;SDS011;44880;52.814;18.270;2023-11-19T13:54:07;30.10;;;14.90;;
59093;SDS011;44880;52.814;18.270;2023-11-19T13:56:43;32.20;;;15.30;;
59093;SDS011;44880;52.814;18.270;2023-11-19T13:59:16;28.00;;;14.30;;
59093;SDS011;44880;52.814;18.270;2023-11-19T14:01:47;30.00;;;14.80;;
59093;SDS011;44880;52.814;18.270;2023-11-19T14:04:19;29.80;;;14.20;;
59093;SDS011;44880;52.814;18.270;2023-11-19T14:06:51;29.20;;;13.80;;
59093;SDS011;44880;52.814;18.270;2023-11-19T14:09:24;32.00;;;14.40;;
59093;SDS011;44880;52.814;18.270;2023-11-19T14:11:58;29.20;;;14.20;;
59093;SDS011;44880;52.814;18.270;2023-11-19T14:14:29;32.90;;;14.50;;
59093;SDS011;44880;52.814;18.270;2023-11-19T14:17:02;35.70;;;15.60;;
59093;SDS011;44880;52.814;18.270;2023-11-19T14:19:36;36.20;;;15.80;;
59093;SDS011;44880;52.814;18.270;2023-11-19T14:22:08;40.90;;;17.40;;
59093;SDS011;44880;52.814;18.270;2023-11-19T14:27:12;34.30;;;15.10;;
59093;SDS011;44880;52.814;18.270;2023-11-19T14:29:45;35.20;;;16.30;;
59093;SDS011;44880;52.814;18.270;2023-11-19T14:32:17;30.40;;;14.80;;
59093;SDS011;44880;52.814;18.270;2023-11-19T14:34:49;29.70;;;15.00;;
59093;SDS011;44880;52.814;18.270;2023-11-19T14:37:21;31.00;;;14.90;;
59093;SDS011;44880;52.814;18.270;2023-11-19T14:39:53;29.60;;;14.10;;
59093;SDS011;44880;52.814;18.270;2023-11-19T14:42:25;30.00;;;14.30;;
59093;SDS011;44880;52.814;18.270;2023-11-19T14:44:57;31.50;;;14.50;;
59093;SDS011;44880;52.814;18.270;2023-11-19T14:47:30;30.30;;;15.20;;
59093;SDS011;44880;52.814;18.270;2023-11-19T14:50:01;29.40;;;13.30;;
59093;SDS011;44880;52.814;18.270;2023-11-19T14:52:36;28.70;;;13.40;;
59093;SDS011;44880;52.814;18.270;2023-11-19T14:55:09;31.50;;;14.50;;
59093;SDS011;44880;52.814;18.270;2023-11-19T14:57:41;35.70;;;16.80;;
59093;SDS011;44880;52.814;18.270;2023-11-19T15:00:14;30.90;;;15.20;;
59093;SDS011;44880;52.814;18.270;2023-11-19T15:02:47;32.80;;;14.60;;
59093;SDS011;44880;52.814;18.270;2023-11-19T15:05:19;28.60;;;14.30;;
59093;SDS011;44880;52.814;18.270;2023-11-19T15:10:23;30.40;;;14.70;;
59093;SDS011;44880;52.814;18.270;2023-11-19T15:12:55;30.10;;;14.50;;
59093;SDS011;44880;52.814;18.270;2023-11-19T15:15:27;30.50;;;14.40;;
59093;SDS011;44880;52.814;18.270;2023-11-19T15:17:59;30.90;;;15.40;;
59093;SDS011;44880;52.814;18.270;2023-11-19T15:20:31;28.30;;;14.10;;
59093;SDS011;44880;52.814;18.270;2023-11-19T15:23:04;29.30;;;14.60;;
59093;SDS011;44880;52.814;18.270;2023-11-19T15:25:38;28.40;;;14.30;;
59093;SDS011;44880;52.814;18.270;2023-11-19T15:28:10;31.00;;;15.40;;
59093;SDS011;44880;52.814;18.270;2023-11-19T15:30:41;27.90;;;13.30;;
59093;SDS011;44880;52.814;18.270;2023-11-19T15:33:14;32.40;;;14.30;;
59093;SDS011;44880;52.814;18.270;2023-11-19T15:35:46;36.10;;;16.50;;
59093;SDS011;44880;52.814;18.270;2023-11-19T15:38:19;32.60;;;15.50;;
59093;SDS011;44880;52.814;18.270;2023-11-19T15:40:51;28.80;;;14.40;;
59093;SDS011;44880;52.814;18.270;2023-11-19T15:43:24;28.50;;;13.50;;
59093;SDS011;44880;52.814;18.270;2023-11-19T15:48:26;23.70;;;12.30;;
59093;SDS011;44880;52.814;18.270;2023-11-19T15:53:28;25.40;;;12.70;;
59093;SDS011;44880;52.814;18.270;2023-11-19T15:58:31;27.30;;;12.60;;
59093;SDS011;44880;52.814;18.270;2023-11-19T16:01:05;26.80;;;12.50;;
59093;SDS011;44880;52.814;18.270;2023-11-19T16:03:37;23.90;;;11.60;;
59093;SDS011;44880;52.814;18.270;2023-11-19T16:06:11;26.80;;;12.90;;
59093;SDS011;44880;52.814;18.270;2023-11-19T16:08:44;25.70;;;12.90;;
59093;SDS011;44880;52.814;18.270;2023-11-19T16:11:16;28.90;;;13.40;;